Dublin, Ireland
Current Conditions -  °F | °C
As of 7:00 PM on Friday 31 Oct 2014 (Local Time) from EIDW Reporting Station
Light Rain Light Rain  
Wind Chill: 13°   Ceiling: 6000
Heat Index: 13°   Visibility: 6mi
Dew Point: 12°   Wind: 15mph
Humidity: 94%   Direction: 260°W
Pressure: 29.68"   Gusts: NA
Location:  53.33°N, 6.25°W
Report Text: EIDW 311900Z 26013KT 9999 -RA FEW007 SCT024 BKN060 13/12 Q1005 NOSIG
Loading
Personal Weather Stations






























Interactive Weather Map
Tropical Storm Tracking
New forecast layout! Learn more

10-Day Weather Forecast

Advertisements
Track Severe Weather on mobile